createdAt,value
2019-03-25T00:00:56.743Z,21.80
2019-03-25T00:03:27.973Z,19.67
2019-03-25T00:05:58.811Z,24.37
2019-03-25T00:08:29.767Z,18.87
2019-03-25T00:11:01.127Z,20.83
2019-03-25T00:13:32.006Z,22.20
2019-03-25T00:16:03.259Z,17.77
2019-03-25T00:18:34.563Z,23.47
2019-03-25T00:21:05.491Z,23.17
2019-03-25T00:23:36.399Z,24.37
2019-03-25T00:26:07.355Z,21.60
2019-03-25T00:28:38.263Z,18.10
2019-03-25T00:31:09.392Z,19.87
2019-03-25T00:33:40.233Z,19.17
2019-03-25T00:36:11.113Z,19.77
2019-03-25T00:38:42.421Z,19.57
2019-03-25T00:41:13.558Z,14.37
2019-03-25T00:43:44.788Z,17.00
2019-03-25T00:46:15.871Z,15.20
2019-03-25T00:48:47.218Z,19.83
2019-03-25T00:51:18.479Z,21.13
2019-03-25T00:53:49.486Z,21.80
2019-03-25T00:56:20.445Z,21.10
2019-03-25T00:58:51.621Z,22.47
2019-03-25T01:01:22.626Z,20.43
2019-03-25T01:03:53.673Z,13.30
2019-03-25T01:06:24.871Z,18.10
2019-03-25T01:08:56.197Z,16.53
2019-03-25T01:11:27.370Z,19.73
2019-03-25T01:13:58.665Z,29.40
2019-03-25T01:16:30.002Z,23.07
2019-03-25T01:19:01.046Z,29.57
2019-03-25T01:21:32.298Z,27.40
2019-03-25T01:24:03.574Z,20.57
2019-03-25T01:26:34.982Z,21.40
2019-03-25T01:29:06.100Z,23.50
2019-03-25T01:31:37.066Z,17.00
2019-03-25T01:34:08.087Z,26.47
2019-03-25T01:36:39.217Z,25.60
2019-03-25T01:39:10.549Z,24.13
2019-03-25T01:41:41.496Z,21.23
2019-03-25T01:44:12.683Z,22.43
2019-03-25T01:46:43.511Z,32.30
2019-03-25T01:49:15.628Z,22.43
2019-03-25T01:51:46.797Z,23.27
2019-03-25T01:54:17.686Z,21.53
2019-03-25T01:56:48.633Z,30.53
2019-03-25T01:59:19.888Z,23.23
2019-03-25T02:01:50.770Z,22.57
2019-03-25T02:04:21.744Z,25.17
2019-03-25T02:06:52.704Z,16.67
2019-03-25T02:09:23.769Z,17.07
2019-03-25T02:11:54.930Z,16.83
2019-03-25T02:14:25.803Z,15.17
2019-03-25T02:16:56.626Z,16.57
2019-03-25T02:19:27.933Z,16.17
2019-03-25T02:21:58.989Z,15.97
2019-03-25T02:24:30.099Z,17.87
2019-03-25T02:27:01.702Z,15.87
2019-03-25T02:29:32.626Z,21.87
2019-03-25T02:32:03.466Z,19.57
2019-03-25T02:34:35.559Z,17.27
2019-03-25T02:37:06.402Z,21.03
2019-03-25T02:39:37.504Z,25.80
2019-03-25T02:42:08.729Z,22.83
2019-03-25T02:44:39.852Z,17.23
2019-03-25T02:47:11.057Z,17.17
2019-03-25T02:49:42.291Z,18.10
2019-03-25T02:52:13.119Z,24.00
2019-03-25T02:54:44.296Z,26.40
2019-03-25T02:57:15.639Z,55.83
2019-03-25T02:59:46.449Z,21.77
2019-03-25T03:02:17.369Z,15.57
2019-03-25T03:04:48.307Z,28.07
2019-03-25T03:07:19.279Z,21.50
2019-03-25T03:09:50.412Z,25.70
2019-03-25T03:12:21.270Z,16.23
2019-03-25T03:14:53.381Z,55.87
2019-03-25T03:17:24.902Z,29.00
2019-03-25T03:19:55.862Z,22.43
2019-03-25T03:22:26.852Z,24.23
2019-03-25T03:24:58.131Z,17.27
2019-03-25T03:27:29.995Z,40.30
2019-03-25T03:30:01.379Z,16.80
2019-03-25T03:32:32.619Z,20.27
2019-03-25T03:35:03.445Z,21.33
2019-03-25T03:37:34.392Z,21.67
2019-03-25T03:40:06.088Z,19.20
2019-03-25T03:42:37.065Z,21.70
2019-03-25T03:45:09.347Z,20.93
2019-03-25T03:47:40.619Z,20.27
2019-03-25T03:50:16.404Z,21.50
2019-03-25T03:52:47.546Z,21.83
2019-03-25T03:55:18.752Z,27.17
2019-03-25T03:57:49.796Z,16.80
2019-03-25T04:00:29.256Z,26.30
2019-03-25T04:03:00.513Z,16.53
2019-03-25T04:05:31.717Z,17.97
2019-03-25T04:08:02.643Z,29.57
2019-03-25T04:10:33.648Z,18.47
2019-03-25T04:13:04.748Z,25.77
2019-03-25T04:15:35.847Z,17.13
2019-03-25T04:18:07.059Z,33.67
2019-03-25T04:20:38.072Z,26.60
2019-03-25T04:23:09.145Z,43.77
2019-03-25T04:25:40.473Z,25.27
2019-03-25T04:28:11.388Z,18.80
2019-03-25T04:30:42.426Z,37.30
2019-03-25T04:33:14.330Z,20.97
2019-03-25T04:35:45.206Z,28.40
2019-03-25T04:38:16.147Z,21.50
2019-03-25T04:40:47.428Z,22.47
2019-03-25T04:43:18.465Z,23.43
2019-03-25T04:45:49.737Z,33.27
2019-03-25T04:48:20.874Z,31.63
2019-03-25T04:50:51.865Z,33.53
2019-03-25T04:53:23.032Z,26.27
2019-03-25T04:55:54.920Z,23.00
2019-03-25T04:58:25.855Z,34.77
2019-03-25T05:00:57.215Z,24.93
2019-03-25T05:03:29.018Z,27.33
2019-03-25T05:06:00.068Z,25.93
2019-03-25T05:08:31.321Z,68.27
2019-03-25T05:11:03.913Z,54.20
2019-03-25T05:13:34.719Z,28.10
2019-03-25T05:16:06.979Z,22.57
2019-03-25T05:18:38.091Z,27.43
2019-03-25T05:21:10.523Z,34.97
2019-03-25T05:23:41.439Z,42.77
2019-03-25T05:26:12.504Z,31.17
2019-03-25T05:28:43.594Z,25.57
2019-03-25T05:31:14.746Z,39.77
2019-03-25T05:33:45.552Z,41.73
2019-03-25T05:36:16.521Z,27.40
2019-03-25T05:38:48.648Z,42.93
2019-03-25T05:41:19.734Z,36.90
2019-03-25T05:43:50.871Z,44.70
2019-03-25T05:46:23.149Z,38.97
2019-03-25T05:48:53.989Z,42.93
2019-03-25T05:51:25.054Z,40.37
2019-03-25T05:53:56.219Z,43.07
2019-03-25T05:56:27.158Z,42.20
2019-03-25T05:58:58.257Z,36.33
2019-03-25T06:01:29.432Z,35.17
2019-03-25T06:04:00.311Z,44.17
2019-03-25T06:06:31.205Z,42.50
2019-03-25T06:09:02.411Z,32.30
2019-03-25T06:11:33.670Z,52.63
2019-03-25T06:14:04.628Z,45.23
2019-03-25T06:16:35.701Z,37.97
2019-03-25T06:19:06.846Z,50.10
2019-03-25T06:21:37.940Z,57.13
2019-03-25T06:24:08.983Z,55.63
2019-03-25T06:26:39.904Z,45.70
2019-03-25T06:29:12.693Z,40.63
2019-03-25T06:31:43.902Z,37.73
2019-03-25T06:34:14.763Z,38.13
2019-03-25T06:36:45.728Z,43.03
2019-03-25T06:39:16.681Z,34.53
2019-03-25T06:41:47.682Z,49.00
2019-03-25T06:44:18.780Z,54.27
2019-03-25T06:46:49.958Z,51.07
2019-03-25T06:49:20.866Z,51.27
2019-03-25T06:51:51.871Z,29.50
2019-03-25T06:54:22.905Z,36.50
2019-03-25T06:56:54.134Z,52.33
2019-03-25T06:59:25.279Z,42.53
2019-03-25T07:01:56.238Z,33.80
2019-03-25T07:04:27.471Z,30.77
2019-03-25T07:06:58.808Z,38.17
2019-03-25T07:09:29.674Z,44.30
2019-03-25T07:12:00.746Z,41.97
2019-03-25T07:14:31.903Z,41.33
2019-03-25T07:17:02.746Z,45.40
2019-03-25T07:19:33.694Z,39.83
2019-03-25T07:22:04.942Z,35.30
2019-03-25T07:24:35.820Z,33.70
2019-03-25T07:27:07.025Z,34.53
2019-03-25T07:29:37.869Z,37.80
2019-03-25T07:32:09.259Z,31.83
2019-03-25T07:34:41.341Z,36.57
2019-03-25T07:37:12.275Z,31.67
2019-03-25T07:39:43.250Z,33.77
2019-03-25T07:42:14.415Z,33.90
2019-03-25T07:44:45.249Z,33.37
2019-03-25T07:47:17.102Z,49.23
2019-03-25T07:49:48.261Z,40.23
2019-03-25T07:52:19.303Z,30.67
2019-03-25T07:54:50.208Z,37.07
2019-03-25T07:57:21.482Z,36.53
2019-03-25T07:59:52.702Z,37.20
2019-03-25T08:02:23.988Z,32.90
2019-03-25T08:04:55.075Z,29.77
2019-03-25T08:07:26.269Z,29.83
2019-03-25T08:09:58.228Z,33.40
2019-03-25T08:12:29.423Z,32.30
2019-03-25T08:15:00.450Z,32.90
2019-03-25T08:17:31.423Z,25.87
2019-03-25T08:20:02.273Z,27.00
2019-03-25T08:22:33.472Z,38.63
2019-03-25T08:25:04.584Z,24.13
2019-03-25T08:27:35.444Z,31.60
2019-03-25T08:30:09.472Z,18.77
2019-03-25T08:32:40.507Z,29.90
2019-03-25T08:37:49.764Z,30.03
2019-03-25T08:40:20.945Z,44.63
2019-03-25T08:42:53.230Z,30.40
2019-03-25T08:45:24.715Z,43.47
2019-03-25T08:47:55.664Z,35.40
2019-03-25T08:50:26.603Z,36.90
2019-03-25T08:52:57.751Z,31.07
2019-03-25T08:55:28.645Z,36.47
2019-03-25T08:58:11.210Z,44.90
2019-03-25T09:00:32.798Z,27.73
2019-03-25T09:03:03.925Z,38.50
2019-03-25T09:05:35.044Z,36.97
2019-03-25T09:08:06.023Z,41.00
2019-03-25T09:10:37.217Z,38.93
2019-03-25T09:13:08.442Z,31.57
2019-03-25T09:15:39.301Z,35.23
2019-03-25T09:18:10.545Z,42.47
2019-03-25T09:20:41.732Z,37.67
2019-03-25T09:23:12.634Z,33.23
2019-03-25T09:25:43.692Z,29.13
2019-03-25T09:28:23.646Z,38.87
2019-03-25T09:31:19.897Z,30.80
2019-03-25T09:33:51.050Z,37.73
2019-03-25T09:36:24.935Z,31.03
2019-03-25T09:38:55.967Z,34.73
2019-03-25T09:41:27.166Z,38.23
2019-03-25T09:43:58.429Z,36.40
2019-03-25T09:46:29.370Z,47.23
2019-03-25T09:49:00.972Z,43.30
2019-03-25T09:51:31.866Z,43.13
2019-03-25T09:54:02.796Z,31.63
2019-03-25T09:56:33.843Z,26.23
2019-03-25T09:59:05.211Z,33.97
2019-03-25T10:01:36.054Z,30.13
2019-03-25T10:04:07.721Z,28.23
2019-03-25T10:06:38.952Z,28.47
2019-03-25T10:09:12.300Z,39.00
2019-03-25T10:11:43.142Z,35.00
2019-03-25T10:14:17.299Z,39.13
2019-03-25T10:16:48.611Z,48.20
2019-03-25T10:19:19.985Z,34.87
2019-03-25T10:21:50.831Z,27.27
2019-03-25T10:24:27.634Z,36.13
2019-03-25T10:26:54.920Z,45.87
2019-03-25T10:29:25.799Z,42.23
2019-03-25T10:31:56.894Z,43.63
2019-03-25T10:34:27.968Z,34.00
2019-03-25T10:36:58.833Z,33.27
2019-03-25T10:39:30.072Z,36.33
2019-03-25T10:42:01.008Z,25.70
2019-03-25T10:44:32.480Z,50.53
2019-03-25T10:47:03.780Z,27.85
2019-03-25T10:49:34.953Z,24.25
2019-03-25T10:52:06.145Z,22.87
2019-03-25T10:54:37.764Z,33.20
2019-03-25T10:57:08.677Z,24.50
2019-03-25T10:59:39.756Z,26.53
2019-03-25T11:02:11.086Z,24.47
2019-03-25T11:04:43.071Z,18.10
2019-03-25T11:07:14.217Z,22.97
2019-03-25T11:09:45.583Z,22.87
2019-03-25T11:12:16.438Z,25.17
2019-03-25T11:14:47.743Z,24.35
2019-03-25T11:17:18.695Z,28.10
2019-03-25T11:19:50.115Z,24.67
2019-03-25T11:22:21.255Z,26.30
2019-03-25T11:24:52.304Z,22.07
2019-03-25T11:27:23.226Z,17.75
2019-03-25T11:29:54.385Z,19.10
2019-03-25T11:32:25.213Z,24.50
2019-03-25T11:34:56.092Z,21.55
2019-03-25T11:37:27.128Z,24.43
2019-03-25T11:39:58.233Z,31.75
2019-03-25T11:42:29.167Z,20.77
2019-03-25T11:45:01.365Z,17.45
2019-03-25T11:47:32.591Z,19.87
2019-03-25T11:50:04.010Z,13.43
2019-03-25T11:52:34.848Z,27.10
2019-03-25T11:55:06.581Z,23.83
2019-03-25T11:57:38.805Z,19.07
2019-03-25T12:00:10.346Z,19.83
2019-03-25T12:02:41.195Z,15.07
2019-03-25T12:05:12.576Z,17.63
2019-03-25T12:07:43.590Z,14.43
2019-03-25T12:10:14.703Z,15.00
2019-03-25T12:12:45.838Z,28.80
2019-03-25T12:15:17.299Z,15.55
2019-03-25T12:17:48.207Z,18.23
2019-03-25T12:20:19.447Z,16.20
2019-03-25T12:22:50.743Z,13.83
2019-03-25T12:25:21.708Z,19.73
2019-03-25T12:27:52.948Z,12.28
2019-03-25T12:30:25.389Z,11.43
2019-03-25T12:33:03.888Z,8.83
2019-03-25T12:35:29.976Z,9.73
2019-03-25T12:38:01.166Z,12.40
2019-03-25T12:40:32.161Z,11.30
2019-03-25T12:43:02.975Z,16.25
2019-03-25T12:45:33.964Z,14.40
2019-03-25T12:48:05.326Z,24.97
2019-03-25T12:50:37.377Z,11.83
2019-03-25T12:53:08.314Z,14.87
2019-03-25T12:55:39.540Z,13.53
2019-03-25T12:58:10.647Z,13.23
2019-03-25T13:00:43.223Z,15.90
2019-03-25T13:03:14.064Z,11.17
2019-03-25T13:05:46.347Z,13.80
2019-03-25T13:08:17.473Z,11.37
2019-03-25T13:10:49.608Z,10.40
2019-03-25T13:13:20.542Z,11.08
2019-03-25T13:15:51.526Z,16.82
2019-03-25T13:18:22.372Z,10.63
2019-03-25T13:20:53.514Z,12.73
2019-03-25T13:23:24.449Z,10.70
2019-03-25T13:25:55.640Z,10.72
2019-03-25T13:28:26.600Z,13.15
2019-03-25T13:30:57.515Z,10.85
2019-03-25T13:33:29.495Z,10.45
2019-03-25T13:36:00.712Z,21.30
2019-03-25T13:38:31.565Z,13.40
2019-03-25T13:41:02.819Z,12.07
2019-03-25T13:43:34.072Z,16.95
2019-03-25T13:46:05.918Z,15.60
2019-03-25T13:48:37.801Z,13.03
2019-03-25T13:51:08.821Z,15.35
2019-03-25T13:53:39.848Z,9.75
2019-03-25T13:56:11.159Z,10.60
2019-03-25T13:58:42.219Z,8.85
2019-03-25T14:01:13.319Z,13.08
2019-03-25T14:03:44.393Z,15.53
2019-03-25T14:06:15.441Z,16.55
2019-03-25T14:08:46.410Z,8.95
2019-03-25T14:11:17.836Z,17.97
2019-03-25T14:13:49.649Z,15.65
2019-03-25T14:16:20.594Z,10.13
2019-03-25T14:18:51.545Z,10.77
2019-03-25T14:21:22.452Z,19.97
2019-03-25T14:23:53.495Z,13.07
2019-03-25T14:26:24.668Z,13.73
2019-03-25T14:28:55.562Z,13.30
2019-03-25T14:31:26.791Z,12.97
2019-03-25T14:33:57.721Z,15.97
2019-03-25T14:36:29.614Z,10.27
2019-03-25T14:39:00.979Z,7.87
2019-03-25T14:41:33.552Z,9.47
2019-03-25T14:44:04.510Z,7.87
2019-03-25T14:46:35.762Z,10.90
2019-03-25T14:49:07.067Z,11.33
2019-03-25T14:51:37.918Z,7.63
2019-03-25T14:54:08.868Z,14.03
2019-03-25T14:56:40.137Z,11.83
2019-03-25T14:59:12.778Z,8.50
2019-03-25T15:01:44.075Z,9.20
2019-03-25T15:04:14.964Z,12.20
2019-03-25T15:06:46.132Z,8.53
2019-03-25T15:09:17.314Z,13.30
2019-03-25T15:11:48.217Z,15.87
2019-03-25T15:14:19.171Z,11.93
2019-03-25T15:16:50.218Z,8.93
2019-03-25T15:19:22.006Z,11.87
2019-03-25T15:21:53.012Z,8.10
2019-03-25T15:24:24.078Z,8.67
2019-03-25T15:26:54.957Z,11.63
2019-03-25T15:29:25.894Z,11.87
2019-03-25T15:31:56.970Z,16.63
2019-03-25T15:34:28.160Z,9.97
2019-03-25T15:36:59.376Z,10.87
2019-03-25T15:39:30.487Z,14.50
2019-03-25T15:42:01.564Z,9.07
2019-03-25T15:44:32.826Z,12.17
2019-03-25T15:47:03.721Z,11.47
2019-03-25T15:49:34.654Z,11.30
2019-03-25T15:52:06.414Z,9.57
2019-03-25T15:54:37.474Z,11.57
2019-03-25T15:57:09.425Z,9.73
2019-03-25T15:59:41.032Z,13.27
2019-03-25T16:02:12.545Z,11.83
2019-03-25T16:04:43.846Z,11.10
2019-03-25T16:07:15.169Z,10.47
2019-03-25T16:09:46.278Z,8.17
2019-03-25T16:12:17.452Z,10.57
2019-03-25T16:14:48.410Z,12.93
2019-03-25T16:17:19.315Z,10.30
2019-03-25T16:19:50.497Z,16.37
2019-03-25T16:22:21.404Z,18.93
2019-03-25T16:24:52.240Z,20.93
2019-03-25T16:27:23.459Z,13.03
2019-03-25T16:29:54.540Z,17.10
2019-03-25T16:32:25.483Z,14.73
2019-03-25T16:34:56.775Z,16.03
2019-03-25T16:37:28.325Z,18.47
2019-03-25T16:39:59.156Z,17.97
2019-03-25T16:42:30.137Z,29.40
2019-03-25T16:45:01.659Z,19.40
2019-03-25T16:47:32.817Z,19.07
2019-03-25T16:50:03.853Z,16.50
2019-03-25T16:52:35.082Z,26.10
2019-03-25T16:55:06.352Z,19.40
2019-03-25T16:57:38.608Z,48.53
2019-03-25T17:00:10.176Z,40.37
2019-03-25T17:02:42.180Z,57.60
2019-03-25T17:05:13.017Z,55.50
2019-03-25T17:07:44.082Z,59.13
2019-03-25T17:10:15.155Z,65.43
2019-03-25T17:12:46.592Z,47.97
2019-03-25T17:15:17.419Z,48.00
2019-03-25T17:17:48.319Z,56.77
2019-03-25T17:20:19.490Z,50.27
2019-03-25T17:22:50.898Z,42.50
2019-03-25T17:25:21.788Z,52.37
2019-03-25T17:27:53.190Z,60.13
2019-03-25T17:30:24.572Z,51.63
2019-03-25T17:32:56.713Z,55.77
2019-03-25T17:35:27.681Z,50.17
2019-03-25T17:37:59.727Z,56.77
2019-03-25T17:40:30.698Z,66.90
2019-03-25T17:43:01.956Z,62.57
2019-03-25T17:45:32.808Z,39.40
2019-03-25T17:48:04.501Z,59.77
2019-03-25T17:50:35.667Z,36.60
2019-03-25T17:53:06.634Z,45.57
2019-03-25T17:55:37.951Z,54.47
2019-03-25T17:58:09.219Z,53.03
2019-03-25T18:01:32.436Z,57.30
2019-03-25T18:04:01.400Z,49.43
2019-03-25T18:06:32.402Z,52.57
2019-03-25T18:09:07.226Z,49.43
2019-03-25T18:11:38.131Z,52.00
2019-03-25T18:14:09.663Z,53.07
2019-03-25T18:16:40.785Z,49.07
2019-03-25T18:19:12.058Z,39.03
2019-03-25T18:21:42.898Z,49.00
2019-03-25T18:24:14.043Z,41.13
2019-03-25T18:26:45.103Z,57.07
2019-03-25T18:29:17.123Z,44.73
2019-03-25T18:31:48.280Z,57.83
2019-03-25T18:34:19.277Z,62.97
2019-03-25T18:36:50.159Z,61.70
2019-03-25T18:39:21.198Z,44.63
2019-03-25T18:41:52.440Z,49.37
2019-03-25T18:44:23.525Z,45.67
2019-03-25T18:46:54.732Z,35.77
2019-03-25T18:49:25.642Z,41.10
2019-03-25T18:51:56.656Z,53.63
2019-03-25T18:54:27.901Z,42.40
2019-03-25T18:56:59.427Z,49.90
2019-03-25T18:59:30.323Z,80.23
2019-03-25T19:02:01.507Z,71.43
2019-03-25T19:04:32.606Z,58.57
2019-03-25T19:07:03.575Z,54.63
2019-03-25T19:09:34.899Z,41.13
2019-03-25T19:12:06.039Z,47.20
2019-03-25T19:14:36.949Z,32.10
2019-03-25T19:17:08.174Z,40.33
2019-03-25T19:19:40.177Z,29.17
2019-03-25T19:22:12.938Z,28.17
2019-03-25T19:24:44.287Z,35.73
2019-03-25T19:27:17.558Z,45.23
2019-03-25T19:29:48.995Z,35.83
2019-03-25T19:32:20.123Z,32.53
2019-03-25T19:34:51.006Z,35.03
2019-03-25T19:37:21.953Z,32.90
2019-03-25T19:39:54.126Z,40.40
2019-03-25T19:42:25.214Z,35.67
2019-03-25T19:44:56.405Z,40.13
2019-03-25T19:47:27.790Z,39.60
2019-03-25T19:49:58.849Z,41.43
2019-03-25T19:52:30.012Z,39.47
2019-03-25T19:55:01.081Z,34.20
2019-03-25T19:57:32.460Z,32.30
2019-03-25T20:00:04.506Z,30.57
2019-03-25T20:02:35.430Z,30.87
2019-03-25T20:05:06.897Z,27.23
2019-03-25T20:07:39.367Z,31.67
2019-03-25T20:10:17.408Z,26.47
2019-03-25T20:12:48.596Z,38.50
2019-03-25T20:15:19.889Z,38.40
2019-03-25T20:17:50.736Z,32.10
2019-03-25T20:20:21.717Z,33.17
2019-03-25T20:22:52.909Z,34.83
2019-03-25T20:25:24.329Z,36.60
2019-03-25T20:27:55.603Z,34.60
2019-03-25T20:30:26.767Z,33.97
2019-03-25T20:32:57.931Z,30.43
2019-03-25T20:35:29.900Z,28.80
2019-03-25T20:38:00.819Z,30.17
2019-03-25T20:40:32.213Z,47.10
2019-03-25T20:43:03.343Z,36.23
2019-03-25T20:45:34.592Z,26.30
2019-03-25T20:48:05.568Z,28.43
2019-03-25T20:50:36.796Z,28.43
2019-03-25T20:53:08.122Z,26.67
2019-03-25T20:55:39.093Z,31.63
2019-03-25T20:58:10.251Z,32.07
2019-03-25T21:00:55.701Z,29.10
2019-03-25T21:03:26.724Z,23.00
2019-03-25T21:05:57.703Z,22.67
2019-03-25T21:08:28.759Z,28.47
2019-03-25T21:10:59.748Z,25.33
2019-03-25T21:13:30.677Z,21.33
2019-03-25T21:16:02.005Z,26.00
2019-03-25T21:18:32.994Z,22.90
2019-03-25T21:21:04.180Z,40.37
2019-03-25T21:23:35.395Z,21.47
2019-03-25T21:26:06.547Z,40.50
2019-03-25T21:28:37.722Z,46.07
2019-03-25T21:31:08.608Z,60.83
2019-03-25T21:33:39.489Z,43.13
2019-03-25T21:36:11.878Z,40.30
2019-03-25T21:38:43.069Z,40.47
2019-03-25T21:41:14.139Z,45.63
2019-03-25T21:43:45.401Z,31.70
2019-03-25T21:46:16.557Z,36.40
2019-03-25T21:48:47.498Z,43.20
2019-03-25T21:51:18.893Z,35.67
2019-03-25T21:53:52.987Z,36.47
2019-03-25T21:56:22.873Z,36.47
2019-03-25T21:58:53.963Z,39.77
2019-03-25T22:01:24.890Z,41.53
2019-03-25T22:03:56.193Z,42.33
2019-03-25T22:06:27.168Z,37.57
2019-03-25T22:08:58.083Z,39.00
2019-03-25T22:11:29.553Z,32.97
2019-03-25T22:14:01.659Z,38.37
2019-03-25T22:16:32.651Z,38.17
2019-03-25T22:19:03.930Z,33.83
2019-03-25T22:21:35.263Z,26.10
2019-03-25T22:24:06.206Z,31.40
2019-03-25T22:26:37.252Z,30.93
2019-03-25T22:29:09.360Z,30.53
2019-03-25T22:31:40.333Z,30.20
2019-03-25T22:34:11.507Z,30.20
2019-03-25T22:36:42.381Z,36.27
2019-03-25T22:39:13.457Z,27.57
2019-03-25T22:41:44.645Z,30.57
2019-03-25T22:44:15.488Z,29.97
2019-03-25T22:46:46.746Z,25.37
2019-03-25T22:49:17.692Z,28.77
2019-03-25T22:51:48.646Z,34.83
2019-03-25T22:54:19.690Z,29.67
2019-03-25T22:56:50.790Z,25.77
2019-03-25T22:59:21.755Z,33.07
2019-03-25T23:01:52.595Z,25.83
2019-03-25T23:04:23.722Z,25.73
2019-03-25T23:06:54.903Z,22.27
2019-03-25T23:09:26.243Z,27.83
2019-03-25T23:11:59.215Z,26.97
2019-03-25T23:14:30.177Z,22.60
2019-03-25T23:17:01.376Z,24.67
2019-03-25T23:19:32.253Z,20.67
2019-03-25T23:22:03.092Z,16.77
2019-03-25T23:24:34.364Z,15.23
2019-03-25T23:27:05.500Z,16.63
2019-03-25T23:29:36.429Z,14.07
2019-03-25T23:32:07.487Z,14.93
2019-03-25T23:34:38.505Z,14.97
2019-03-25T23:37:09.554Z,18.40
2019-03-25T23:39:40.696Z,17.17
2019-03-25T23:42:13.298Z,16.77
2019-03-25T23:44:44.715Z,29.43
2019-03-25T23:47:15.747Z,19.37
2019-03-25T23:49:46.757Z,19.03
2019-03-25T23:52:18.005Z,22.03
2019-03-25T23:54:49.350Z,18.17
2019-03-25T23:57:20.291Z,17.73
2019-03-25T23:59:51.667Z,19.30
